Time;durP1;ratioP1;P1;durP2;ratioP2;P2;SDS_P1;SDS_P2;PMS_P1;PMS_P2;Temp;Humidity;BMP_temperature;BMP_pressure;BME280_temperature;BME280_humidity;BME280_pressure;Samples;Min_cycle;Max_cycle;Signal;HPM_P1;HPM_P2
2021/08/24 00:00:26;;;;;;;1.92;1.02;;;20.10;79.70;;;;;;5026439;28;20022;-68
2021/08/24 00:02:52;;;;;;;3.22;1.10;;;20.10;79.70;;;;;;5026881;28;20072;-67
2021/08/24 00:05:29;;;;;;;2.03;0.90;;;20.10;79.90;;;;;;5027037;28;20107;-68
2021/08/24 00:07:56;;;;;;;1.73;0.98;;;20.10;80.00;;;;;;5027014;28;20033;-68
2021/08/24 00:10:27;;;;;;;3.50;1.00;;;20.10;80.10;;;;;;5024928;28;20025;-70
2021/08/24 00:12:53;;;;;;;3.83;1.10;;;20.10;80.10;;;;;;5026611;28;20410;-69
2021/08/24 00:15:19;;;;;;;3.55;1.00;;;20.00;80.10;;;;;;5026773;28;20060;-67
2021/08/24 00:17:45;;;;;;;2.13;0.98;;;20.00;80.20;;;;;;5025630;28;20033;-68
2021/08/24 00:20:11;;;;;;;2.20;1.23;;;20.00;80.20;;;;;;5026352;28;20036;-68
2021/08/24 00:22:38;;;;;;;2.92;1.10;;;20.00;80.20;;;;;;5026367;28;20045;-68
2021/08/24 00:25:09;;;;;;;2.47;1.00;;;20.00;80.30;;;;;;5025132;28;20032;-68
2021/08/24 00:27:35;;;;;;;3.55;1.00;;;20.00;80.30;;;;;;5025119;28;20034;-69
2021/08/24 00:30:01;;;;;;;2.97;1.10;;;20.00;80.40;;;;;;5026167;28;20128;-66
2021/08/24 00:32:28;;;;;;;6.45;1.00;;;20.00;80.40;;;;;;5026263;28;20079;-68
2021/08/24 00:34:54;;;;;;;3.45;0.93;;;19.90;80.40;;;;;;5025003;28;20025;-68
2021/08/24 00:37:21;;;;;;;3.95;1.10;;;20.00;80.50;;;;;;5026369;28;20035;-67
2021/08/24 00:39:47;;;;;;;2.72;1.17;;;19.90;80.50;;;;;;5026419;28;20112;-68
2021/08/24 00:42:20;;;;;;;2.80;1.10;;;19.90;80.60;;;;;;5024518;28;20026;-68
2021/08/24 00:44:47;;;;;;;1.77;0.90;;;19.90;80.50;;;;;;5026204;28;20025;-68
2021/08/24 00:47:14;;;;;;;2.70;1.00;;;19.90;80.70;;;;;;5024995;28;20044;-69
2021/08/24 00:49:40;;;;;;;2.75;1.10;;;19.90;80.70;;;;;;5026007;28;20044;-68
2021/08/24 00:52:10;;;;;;;2.10;0.93;;;19.90;80.90;;;;;;5024545;28;20029;-67
2021/08/24 00:54:37;;;;;;;2.88;0.90;;;19.90;80.80;;;;;;5024809;28;20509;-67
2021/08/24 00:57:10;;;;;;;3.60;1.02;;;19.90;80.70;;;;;;5025973;28;20072;-67
2021/08/24 00:59:35;;;;;;;1.85;0.90;;;19.90;80.80;;;;;;5025866;28;20577;-67
2021/08/24 01:02:01;;;;;;;3.35;1.33;;;19.90;81.00;;;;;;5024306;28;20037;-69
2021/08/24 01:04:29;;;;;;;3.63;1.10;;;19.90;81.00;;;;;;5025816;28;20025;-68
2021/08/24 01:07:01;;;;;;;2.58;1.10;;;19.90;81.00;;;;;;5025708;28;20036;-67
2021/08/24 01:09:42;;;;;;;2.05;0.88;;;19.90;80.90;;;;;;5024717;28;20448;-67
2021/08/24 01:12:37;;;;;;;1.98;1.00;;;19.80;80.90;;;;;;5025440;28;20034;-68
2021/08/24 01:15:22;;;;;;;3.42;1.10;;;19.80;80.90;;;;;;5025630;28;20108;-68
2021/08/24 01:18:16;;;;;;;2.75;1.20;;;19.80;80.80;;;;;;5025755;28;20061;-69
2021/08/24 01:21:10;;;;;;;2.88;1.38;;;19.80;80.90;;;;;;5023567;28;20047;-68
2021/08/24 01:24:07;;;;;;;2.58;1.00;;;19.80;80.90;;;;;;5024387;28;20043;-67
2021/08/24 01:26:54;;;;;;;5.22;1.13;;;19.80;80.90;;;;;;5024160;28;20147;-69
2021/08/24 01:29:37;;;;;;;2.33;1.10;;;19.80;80.80;;;;;;5025403;28;20030;-69
2021/08/24 01:32:24;;;;;;;2.53;1.00;;;19.80;80.80;;;;;;5025286;28;20033;-68
2021/08/24 01:35:06;;;;;;;2.85;1.20;;;19.80;80.80;;;;;;5025194;28;20104;-68
2021/08/24 01:37:47;;;;;;;1.95;1.05;;;19.80;80.80;;;;;;5025377;28;20494;-68
2021/08/24 01:40:17;;;;;;;;;;;19.80;80.90;;;;;;5025652;28;20033;-67
2021/08/24 01:42:44;;;;;;;;;;;19.80;80.80;;;;;;5024577;28;20362;-68
2021/08/24 01:45:31;;;;;;;1.75;1.00;;;19.80;80.90;;;;;;5024827;28;19909;-68
2021/08/24 01:48:23;;;;;;;3.30;1.10;;;19.80;81.00;;;;;;5024929;28;20028;-68
2021/08/24 01:51:00;;;;;;;3.65;1.20;;;19.80;80.90;;;;;;5023392;28;20033;-68
2021/08/24 01:53:36;;;;;;;3.13;1.02;;;19.80;81.00;;;;;;5024652;28;20026;-68
2021/08/24 01:56:10;;;;;;;3.33;1.30;;;19.70;81.00;;;;;;5025227;28;20029;-69
2021/08/24 01:58:48;;;;;;;1.63;0.90;;;19.70;81.10;;;;;;5025545;28;20534;-68
2021/08/24 02:01:18;;;;;;;1.90;0.93;;;19.70;81.10;;;;;;5023482;28;20037;-68
2021/08/24 02:03:49;;;;;;;4.85;1.13;;;19.70;81.20;;;;;;5023589;28;20025;-68
2021/08/24 02:06:24;;;;;;;2.72;1.10;;;19.70;81.30;;;;;;5025120;28;20438;-68
2021/08/24 02:08:54;;;;;;;4.15;1.08;;;19.70;81.30;;;;;;5025100;28;20065;-69
2021/08/24 02:11:20;;;;;;;3.35;1.50;;;19.70;81.40;;;;;;5024906;28;20038;-68
2021/08/24 02:13:49;;;;;;;3.92;1.35;;;19.70;81.50;;;;;;5024798;28;20483;-68
2021/08/24 02:16:23;;;;;;;2.47;1.02;;;19.70;81.50;;;;;;5023741;28;20816;-68
2021/08/24 02:18:57;;;;;;;2.78;1.13;;;19.70;81.60;;;;;;5025139;28;20047;-69
2021/08/24 02:21:28;;;;;;;4.35;1.58;;;19.70;81.60;;;;;;5023819;28;20036;-68
2021/08/24 02:23:56;;;;;;;2.57;1.27;;;19.70;81.70;;;;;;5025012;28;20438;-68
2021/08/24 02:26:26;;;;;;;2.95;1.42;;;19.70;81.70;;;;;;5023873;28;20068;-69
2021/08/24 02:28:55;;;;;;;3.17;1.27;;;19.70;81.70;;;;;;5025205;28;20033;-69
2021/08/24 02:31:43;;;;;;;2.47;1.13;;;19.70;81.70;;;;;;5024028;28;20400;-68
2021/08/24 02:34:35;;;;;;;2.15;1.30;;;19.60;81.60;;;;;;5030803;28;20020;-68
2021/08/24 02:37:33;;;;;;;2.83;1.15;;;19.60;81.60;;;;;;5035747;28;20049;-67
2021/08/24 02:40:24;;;;;;;2.78;1.23;;;19.60;81.70;;;;;;5042649;28;20044;-68
2021/08/24 02:43:08;;;;;;;1.42;0.90;;;19.70;81.80;;;;;;5043648;28;20017;-68
2021/08/24 02:45:40;;;;;;;4.32;1.23;;;19.60;81.70;;;;;;5044484;28;20124;-67
2021/08/24 02:48:09;;;;;;;3.22;1.23;;;19.60;81.80;;;;;;5044818;28;20021;-69
2021/08/24 02:50:36;;;;;;;3.00;1.27;;;19.60;81.90;;;;;;5044251;28;20032;-68
2021/08/24 02:53:01;;;;;;;2.75;1.30;;;19.60;81.80;;;;;;5043293;28;20494;-67
2021/08/24 02:55:27;;;;;;;2.92;1.20;;;19.60;82.00;;;;;;5045240;28;20048;-69
2021/08/24 02:57:53;;;;;;;3.70;1.35;;;19.60;82.00;;;;;;5048243;28;20033;-69
2021/08/24 03:00:18;;;;;;;2.50;1.10;;;19.60;81.90;;;;;;5047742;28;20029;-68
2021/08/24 03:02:44;;;;;;;3.33;1.40;;;19.60;82.00;;;;;;5046633;28;20742;-68
2021/08/24 03:05:10;;;;;;;2.25;1.15;;;19.60;82.00;;;;;;5048066;28;20052;-68
2021/08/24 03:07:38;;;;;;;2.88;1.20;;;19.60;82.00;;;;;;5048036;28;20486;-69
2021/08/24 03:10:08;;;;;;;2.90;1.20;;;19.60;82.00;;;;;;5047701;28;20545;-67
2021/08/24 03:12:50;;;;;;;3.28;1.20;;;19.60;82.00;;;;;;5046943;28;20483;-67
2021/08/24 03:15:18;;;;;;;3.15;1.20;;;19.60;82.00;;;;;;5046636;28;20028;-68
2021/08/24 03:17:54;;;;;;;3.58;1.20;;;19.50;81.90;;;;;;5048017;28;20047;-67
2021/08/24 03:20:24;;;;;;;5.00;1.48;;;19.50;81.90;;;;;;5047357;28;20033;-68
2021/08/24 03:22:52;;;;;;;4.55;1.20;;;19.60;82.00;;;;;;5046484;28;20029;-67
2021/08/24 03:25:18;;;;;;;4.13;1.40;;;19.50;82.00;;;;;;5047426;28;20025;-69
2021/08/24 03:27:46;;;;;;;3.22;1.10;;;19.50;82.00;;;;;;5047705;28;20036;-68
2021/08/24 03:30:16;;;;;;;3.40;1.30;;;19.60;82.00;;;;;;5046933;28;20029;-67
2021/08/24 03:32:43;;;;;;;3.08;1.20;;;19.50;82.00;;;;;;5047547;28;20085;-67
2021/08/24 03:35:10;;;;;;;2.83;1.35;;;19.60;82.00;;;;;;5046081;28;20070;-68
2021/08/24 03:37:36;;;;;;;3.03;1.20;;;19.50;82.00;;;;;;5046222;28;20032;-67
2021/08/24 03:40:04;;;;;;;3.28;1.20;;;19.50;81.90;;;;;;5045530;28;20039;-70
2021/08/24 03:42:30;;;;;;;2.92;1.30;;;19.50;82.00;;;;;;5047169;28;20033;-68
2021/08/24 03:44:55;;;;;;;3.53;1.60;;;19.50;82.20;;;;;;5047182;28;20029;-68
2021/08/24 03:47:21;;;;;;;2.90;1.40;;;19.50;82.00;;;;;;5036285;28;20104;-69
2021/08/24 03:49:46;;;;;;;3.65;1.50;;;19.50;82.00;;;;;;5037920;28;20402;-67
2021/08/24 03:52:12;;;;;;;2.85;1.20;;;19.50;82.00;;;;;;5031260;28;20108;-69
2021/08/24 03:54:37;;;;;;;3.35;1.40;;;19.50;82.10;;;;;;5030382;28;20033;-68
2021/08/24 03:57:03;;;;;;;3.78;1.65;;;19.40;81.90;;;;;;5027283;28;20098;-69
2021/08/24 03:59:29;;;;;;;3.13;1.52;;;19.40;81.90;;;;;;5031336;28;20116;-68
2021/08/24 04:01:54;;;;;;;3.15;1.40;;;19.40;82.00;;;;;;5031037;28;20061;-68
2021/08/24 04:04:20;;;;;;;3.30;1.35;;;19.50;82.30;;;;;;5049056;28;20082;-68
2021/08/24 04:06:45;;;;;;;2.85;1.20;;;19.40;82.20;;;;;;5044094;28;20032;-68
2021/08/24 04:09:11;;;;;;;2.28;1.10;;;19.40;82.40;;;;;;5042883;28;20033;-68
2021/08/24 04:11:37;;;;;;;2.95;1.30;;;19.40;82.50;;;;;;5036349;28;20113;-68
2021/08/24 04:14:03;;;;;;;2.88;1.30;;;19.40;82.60;;;;;;5031523;28;20040;-68
2021/08/24 04:16:28;;;;;;;2.35;1.10;;;19.40;82.70;;;;;;5032578;28;20037;-68
2021/08/24 04:18:55;;;;;;;2.72;1.13;;;19.40;82.80;;;;;;5037940;28;20051;-68
2021/08/24 04:21:21;;;;;;;3.45;1.42;;;19.40;82.90;;;;;;5044642;28;20033;-68
2021/08/24 04:23:48;;;;;;;2.30;1.40;;;19.40;83.00;;;;;;5031857;28;20041;-66
2021/08/24 04:26:15;;;;;;;3.00;1.10;;;19.40;83.00;;;;;;5046372;28;20824;-66
2021/08/24 04:28:41;;;;;;;2.75;1.20;;;19.40;83.00;;;;;;5032406;28;20017;-67
2021/08/24 04:31:11;;;;;;;2.67;1.30;;;19.40;83.10;;;;;;5026173;28;20037;-66
2021/08/24 04:33:36;;;;;;;2.42;1.15;;;19.40;83.10;;;;;;5026913;28;20040;-66
2021/08/24 04:36:05;;;;;;;4.63;2.08;;;19.40;83.20;;;;;;5039703;28;20025;-67
2021/08/24 04:38:30;;;;;;;3.58;1.42;;;19.40;83.20;;;;;;5041610;28;20029;-66
2021/08/24 04:40:58;;;;;;;3.22;1.40;;;19.40;83.30;;;;;;5036655;28;20103;-69
2021/08/24 04:43:23;;;;;;;3.42;1.33;;;19.40;83.30;;;;;;5032219;28;20032;-68
2021/08/24 04:45:49;;;;;;;3.67;1.45;;;19.40;83.40;;;;;;5039341;28;20025;-66
2021/08/24 04:48:14;;;;;;;2.95;1.30;;;19.40;83.40;;;;;;5030809;28;20031;-67
2021/08/24 04:50:41;;;;;;;3.28;1.33;;;19.40;83.40;;;;;;5037946;28;20522;-66
2021/08/24 04:53:07;;;;;;;2.00;1.10;;;19.40;83.40;;;;;;5033128;28;20049;-67
2021/08/24 04:55:34;;;;;;;3.35;1.15;;;19.40;83.40;;;;;;5047314;28;20043;-67
2021/08/24 04:58:02;;;;;;;4.18;1.50;;;19.40;83.40;;;;;;5040420;28;20029;-69
2021/08/24 05:00:28;;;;;;;3.08;1.30;;;19.40;83.40;;;;;;5037561;28;20037;-67
2021/08/24 05:02:54;;;;;;;7.50;2.75;;;19.40;83.80;;;;;;5035793;28;20021;-68
2021/08/24 05:05:20;;;;;;;7.05;2.42;;;19.40;84.30;;;;;;5027190;28;20545;-68
2021/08/24 05:07:45;;;;;;;7.10;1.85;;;19.50;84.80;;;;;;5041522;28;20020;-67
2021/08/24 05:10:11;;;;;;;4.82;1.63;;;19.50;84.80;;;;;;5041761;28;20429;-67
2021/08/24 05:12:36;;;;;;;3.70;1.60;;;19.50;84.00;;;;;;5031128;28;20041;-67
2021/08/24 05:15:02;;;;;;;7.78;1.98;;;19.50;83.20;;;;;;5027627;28;20095;-71
2021/08/24 05:17:27;;;;;;;4.75;1.58;;;19.60;82.90;;;;;;5023717;28;20117;-69
2021/08/24 05:19:53;;;;;;;7.22;2.08;;;19.60;82.70;;;;;;5042068;28;20043;-71
2021/08/24 05:22:19;;;;;;;8.85;2.20;;;19.70;82.70;;;;;;5042671;28;20123;-65
2021/08/24 05:24:44;;;;;;;7.40;2.00;;;19.70;82.60;;;;;;5025724;28;20026;-68
2021/08/24 05:27:10;;;;;;;6.15;1.67;;;19.80;82.30;;;;;;5030251;28;20040;-70
2021/08/24 05:29:36;;;;;;;5.82;3.03;;;19.80;82.00;;;;;;5033490;28;20528;-65
2021/08/24 05:32:02;;;;;;;8.02;3.17;;;18.90;71.40;;;;;;5045637;28;20036;-65
2021/08/24 05:34:29;;;;;;;7.75;3.35;;;18.20;73.80;;;;;;5045754;28;20136;-66
2021/08/24 05:36:55;;;;;;;5.78;2.83;;;17.90;75.60;;;;;;5045908;28;20040;-66
2021/08/24 05:39:20;;;;;;;6.28;2.97;;;17.90;76.10;;;;;;5039063;28;20029;-66
2021/08/24 05:41:46;;;;;;;6.93;3.38;;;17.70;76.20;;;;;;5030344;28;20032;-67
2021/08/24 05:44:11;;;;;;;5.10;2.85;;;17.90;76.40;;;;;;5036081;28;20807;-66
2021/08/24 05:46:37;;;;;;;6.60;3.30;;;18.10;77.20;;;;;;5027845;28;20036;-66
2021/08/24 05:49:04;;;;;;;7.15;2.90;;;18.30;75.20;;;;;;5037565;28;20037;-68
2021/08/24 05:51:29;;;;;;;8.88;3.60;;;18.50;74.90;;;;;;5022929;28;20337;-66
2021/08/24 05:53:55;;;;;;;6.38;3.30;;;18.70;73.90;;;;;;5020639;28;20021;-69
2021/08/24 05:56:23;;;;;;;5.90;3.22;;;18.80;74.10;;;;;;5023033;28;20616;-65
2021/08/24 05:58:51;;;;;;;6.50;3.40;;;19.00;73.50;;;;;;5022431;28;20037;-66
2021/08/24 06:01:20;;;;;;;5.97;3.00;;;19.00;72.10;;;;;;5024834;28;20018;-63
2021/08/24 06:03:45;;;;;;;6.05;2.88;;;19.40;71.10;;;;;;5025045;28;20502;-65
2021/08/24 06:06:26;;;;;;;6.30;3.10;;;19.60;71.00;;;;;;5024957;28;20021;-66
2021/08/24 06:08:52;;;;;;;5.85;3.30;;;19.70;69.60;;;;;;5023341;28;20476;-64
2021/08/24 06:11:22;;;;;;;7.53;3.63;;;19.70;72.80;;;;;;5032050;28;20315;-64
2021/08/24 06:13:48;;;;;;;5.57;3.00;;;19.90;70.90;;;;;;5030385;28;20033;-64
2021/08/24 06:16:13;;;;;;;4.63;1.65;;;20.00;70.50;;;;;;5035899;28;20035;-64
2021/08/24 06:18:39;;;;;;;5.47;2.50;;;20.40;74.90;;;;;;5039695;28;20082;-69
2021/08/24 06:21:05;;;;;;;5.72;2.55;;;20.70;70.80;;;;;;5042716;28;20115;-65
2021/08/24 06:23:31;;;;;;;6.88;2.53;;;20.70;70.20;;;;;;5043972;28;20124;-64
2021/08/24 06:25:57;;;;;;;6.43;2.20;;;20.80;68.60;;;;;;5044135;28;20033;-67
2021/08/24 06:28:23;;;;;;;7.22;3.08;;;20.80;68.20;;;;;;5042587;28;20121;-65
2021/08/24 06:30:49;;;;;;;5.60;2.60;;;21.00;66.70;;;;;;5045671;28;20052;-65
2021/08/24 06:33:14;;;;;;;7.40;2.90;;;21.10;69.40;;;;;;5047699;28;20486;-63
2021/08/24 06:35:40;;;;;;;5.95;2.65;;;21.20;69.40;;;;;;5047067;28;20082;-66
2021/08/24 06:38:05;;;;;;;5.30;1.92;;;21.30;64.80;;;;;;5048270;28;20036;-63
2021/08/24 06:40:32;;;;;;;5.72;2.50;;;21.40;69.20;;;;;;5047995;28;20096;-65
2021/08/24 06:42:58;;;;;;;4.85;2.45;;;21.40;67.10;;;;;;5048119;28;20114;-67
2021/08/24 06:45:27;;;;;;;3.55;1.42;;;21.60;68.80;;;;;;5047198;28;20049;-65
2021/08/24 06:47:54;;;;;;;5.68;2.67;;;21.70;69.90;;;;;;5048353;28;20033;-64
2021/08/24 06:50:21;;;;;;;5.90;2.40;;;21.80;66.50;;;;;;5046430;28;20017;-65
2021/08/24 06:52:46;;;;;;;6.00;2.40;;;21.80;64.00;;;;;;5048054;28;20513;-67
2021/08/24 06:55:12;;;;;;;4.70;1.70;;;21.90;68.50;;;;;;5048234;28;20033;-65
2021/08/24 06:57:40;;;;;;;3.47;1.58;;;22.00;69.10;;;;;;5047867;28;20036;-67
2021/08/24 07:00:11;;;;;;;3.00;1.30;;;22.00;67.80;;;;;;5047994;28;20029;-65
2021/08/24 07:02:38;;;;;;;3.13;1.48;;;22.00;69.30;;;;;;5046680;28;20025;-65
2021/08/24 07:05:05;;;;;;;5.03;1.48;;;21.90;69.50;;;;;;5047865;28;20063;-65
2021/08/24 07:07:30;;;;;;;2.42;1.17;;;22.00;69.50;;;;;;5047809;28;20102;-64
2021/08/24 07:09:56;;;;;;;4.43;1.75;;;21.90;69.70;;;;;;5046020;28;20505;-64
2021/08/24 07:12:22;;;;;;;3.30;1.30;;;21.80;70.10;;;;;;5047491;28;20098;-63
2021/08/24 07:14:47;;;;;;;4.07;1.63;;;21.90;69.60;;;;;;5047725;28;20486;-64
2021/08/24 07:17:15;;;;;;;4.18;1.65;;;22.00;69.00;;;;;;5047589;28;20380;-64
2021/08/24 07:19:40;;;;;;;3.17;1.30;;;21.90;69.60;;;;;;5046403;28;20025;-67
2021/08/24 07:22:06;;;;;;;2.88;1.20;;;21.90;69.60;;;;;;5047181;28;20028;-67
2021/08/24 07:24:31;;;;;;;2.92;1.40;;;21.80;69.50;;;;;;5047495;28;20553;-66
2021/08/24 07:26:57;;;;;;;3.53;1.70;;;21.90;70.30;;;;;;5047161;28;20391;-66
2021/08/24 07:29:22;;;;;;;3.47;1.60;;;22.10;68.40;;;;;;5047482;28;20033;-65
2021/08/24 07:31:48;;;;;;;3.83;1.50;;;22.00;68.60;;;;;;5047086;28;20035;-65
2021/08/24 07:34:14;;;;;;;3.15;1.38;;;21.80;69.60;;;;;;5047469;28;20040;-65
2021/08/24 07:36:39;;;;;;;3.03;1.50;;;21.80;69.50;;;;;;5046011;28;20498;-65
2021/08/24 07:39:06;;;;;;;2.65;1.40;;;21.90;68.80;;;;;;5047293;28;20029;-64
2021/08/24 07:41:31;;;;;;;2.60;1.30;;;21.90;69.10;;;;;;5044841;28;20029;-65
2021/08/24 07:43:57;;;;;;;2.53;1.20;;;22.10;68.70;;;;;;5045336;28;20120;-65
2021/08/24 07:46:23;;;;;;;4.70;1.90;;;22.10;68.60;;;;;;5045689;28;20095;-67
2021/08/24 07:48:48;;;;;;;2.72;1.33;;;22.10;67.90;;;;;;5046072;28;20537;-64
2021/08/24 07:51:14;;;;;;;2.17;1.27;;;22.10;68.70;;;;;;5045524;28;20029;-65
2021/08/24 07:53:39;;;;;;;4.38;1.60;;;22.00;69.00;;;;;;5045841;28;20032;-67
2021/08/24 07:56:09;;;;;;;4.55;1.90;;;22.00;69.20;;;;;;5046518;28;20029;-65
2021/08/24 07:58:34;;;;;;;4.75;1.67;;;22.00;62.10;;;;;;5047011;28;20025;-64
2021/08/24 08:01:00;;;;;;;2.65;1.48;;;22.00;59.40;;;;;;5046408;28;20029;-67
2021/08/24 08:03:25;;;;;;;2.88;1.20;;;22.10;68.10;;;;;;5046982;28;20040;-63
2021/08/24 08:05:51;;;;;;;3.28;1.35;;;22.00;68.50;;;;;;5045389;28;20497;-65
2021/08/24 08:08:16;;;;;;;3.65;1.27;;;22.10;68.40;;;;;;5044947;28;20040;-66
2021/08/24 08:10:42;;;;;;;2.40;1.40;;;22.10;68.40;;;;;;5046316;28;20032;-65
2021/08/24 08:13:07;;;;;;;3.05;1.48;;;22.00;68.10;;;;;;5046541;28;20035;-65
2021/08/24 08:15:33;;;;;;;3.50;1.42;;;22.10;68.30;;;;;;5046703;28;20037;-65
2021/08/24 08:18:09;;;;;;;2.25;1.20;;;22.20;68.20;;;;;;5046437;28;20082;-65
2021/08/24 08:20:44;;;;;;;4.13;1.50;;;22.20;67.90;;;;;;5046351;28;20104;-68
2021/08/24 08:23:10;;;;;;;2.30;1.17;;;22.30;62.10;;;;;;5044649;28;20029;-65
2021/08/24 08:25:36;;;;;;;2.92;1.40;;;22.10;68.20;;;;;;5046500;28;20017;-67
2021/08/24 08:28:02;;;;;;;3.35;1.30;;;22.10;66.80;;;;;;5046222;28;20025;-65
2021/08/24 08:30:29;;;;;;;3.22;1.20;;;22.20;62.60;;;;;;5046075;28;20102;-66
2021/08/24 08:32:55;;;;;;;3.58;1.35;;;22.30;66.70;;;;;;5044877;28;20676;-65
2021/08/24 08:35:21;;;;;;;3.55;1.42;;;22.20;66.20;;;;;;5044497;28;20033;-70
2021/08/24 08:37:47;;;;;;;3.63;1.33;;;22.20;67.70;;;;;;5046209;28;20457;-65
2021/08/24 08:40:15;;;;;;;2.65;1.15;;;22.00;68.40;;;;;;5044395;28;20032;-65
2021/08/24 08:42:40;;;;;;;3.20;1.30;;;21.90;68.40;;;;;;5046478;28;20025;-65
2021/08/24 08:45:21;;;;;;;3.83;1.55;;;21.90;68.90;;;;;;5045901;28;20572;-66
2021/08/24 08:47:59;;;;;;;2.97;1.10;;;21.80;69.20;;;;;;5029033;28;20029;-66
2021/08/24 08:50:41;;;;;;;3.65;1.27;;;21.80;69.30;;;;;;5025504;28;20033;-66
2021/08/24 08:53:17;;;;;;;3.17;1.30;;;21.60;69.30;;;;;;5024435;28;20052;-66
2021/08/24 08:55:49;;;;;;;2.22;1.00;;;21.70;70.10;;;;;;5025805;28;20588;-66
2021/08/24 08:58:57;;;;;;;3.00;1.25;;;21.50;69.00;;;;;;5025600;28;20041;-66
2021/08/24 09:01:31;;;;;;;2.17;1.25;;;21.40;61.70;;;;;;5025320;28;20075;-64
2021/08/24 09:04:17;;;;;;;3.63;1.35;;;21.50;70.00;;;;;;5030097;28;20108;-65
2021/08/24 09:06:49;;;;;;;3.42;1.27;;;21.40;64.70;;;;;;5043545;28;20021;-65
2021/08/24 09:09:15;;;;;;;2.22;1.02;;;21.10;67.30;;;;;;5042995;28;20029;-66
2021/08/24 09:11:45;;;;;;;5.55;1.38;;;21.30;70.30;;;;;;5032199;28;20068;-66
2021/08/24 09:14:18;;;;;;;4.93;1.20;;;21.70;69.70;;;;;;5038288;28;20025;-64
2021/08/24 09:16:51;;;;;;;4.28;1.60;;;21.80;69.40;;;;;;5027071;28;20167;-65
2021/08/24 09:19:22;;;;;;;4.28;1.38;;;21.90;66.20;;;;;;5033408;28;20035;-64
2021/08/24 09:21:48;;;;;;;6.97;2.30;;;21.90;60.10;;;;;;5035623;28;20029;-67
2021/08/24 09:24:19;;;;;;;7.07;1.85;;;22.10;60.70;;;;;;5033963;28;20040;-65
2021/08/24 09:26:55;;;;;;;9.40;2.08;;;21.90;61.30;;;;;;5036826;28;20512;-67
2021/08/24 09:29:28;;;;;;;5.63;2.10;;;21.90;68.00;;;;;;5042850;28;20842;-69
2021/08/24 09:31:54;;;;;;;8.80;2.47;;;21.80;67.90;;;;;;5025465;28;20968;-63
2021/08/24 09:34:27;;;;;;;6.45;2.20;;;21.90;69.00;;;;;;5026003;28;20052;-63
2021/08/24 09:36:53;;;;;;;4.75;1.48;;;21.90;66.10;;;;;;5025760;28;20025;-65
2021/08/24 09:39:47;;;;;;;8.05;2.03;;;21.90;61.60;;;;;;5030638;28;20040;-65
2021/08/24 09:42:12;;;;;;;8.57;2.35;;;21.80;69.60;;;;;;5027825;28;20025;-67
2021/08/24 09:44:38;;;;;;;4.43;1.50;;;21.90;68.70;;;;;;5029172;28;20029;-65
2021/08/24 09:47:13;;;;;;;6.35;1.77;;;21.90;62.30;;;;;;5034289;28;20014;-66
2021/08/24 09:49:43;;;;;;;3.92;1.50;;;22.00;68.00;;;;;;5031414;28;20038;-66
2021/08/24 09:52:12;;;;;;;8.40;2.50;;;22.00;62.10;;;;;;5031144;28;20048;-64
2021/08/24 09:54:37;;;;;;;5.88;1.85;;;21.90;68.20;;;;;;5036654;28;20026;-65
2021/08/24 09:57:34;;;;;;;6.68;2.20;;;21.90;67.90;;;;;;5034340;28;20020;-65
2021/08/24 10:00:17;;;;;;;5.13;1.80;;;21.80;68.20;;;;;;5027141;28;20037;-64
2021/08/24 10:02:46;;;;;;;6.55;2.22;;;21.80;68.90;;;;;;5028546;28;20036;-67
2021/08/24 10:05:13;;;;;;;7.07;1.85;;;21.90;68.90;;;;;;5035184;28;20078;-66
2021/08/24 10:07:45;;;;;;;7.07;1.75;;;22.00;68.70;;;;;;5037624;28;20087;-65
2021/08/24 10:10:30;;;;;;;6.68;1.58;;;21.90;68.40;;;;;;5045351;28;20040;-66
2021/08/24 10:12:58;;;;;;;6.28;1.42;;;21.90;68.10;;;;;;5039063;28;20090;-64
2021/08/24 10:15:31;;;;;;;4.90;1.92;;;22.10;66.70;;;;;;5042544;28;20029;-65
2021/08/24 10:18:06;;;;;;;5.40;1.63;;;22.10;68.10;;;;;;5044775;28;20018;-65
2021/08/24 10:20:33;;;;;;;4.57;1.52;;;21.60;66.60;;;;;;5042950;28;20033;-66
2021/08/24 10:23:03;;;;;;;3.78;1.08;;;21.70;61.30;;;;;;5048543;28;20037;-65
2021/08/24 10:25:41;;;;;;;2.75;1.10;;;21.60;57.90;;;;;;5048708;28;20064;-65
2021/08/24 10:28:36;;;;;;;2.88;1.20;;;21.60;57.10;;;;;;5048240;28;20037;-64
2021/08/24 10:31:48;;;;;;;5.00;1.73;;;21.70;60.30;;;;;;5048025;28;20115;-66
2021/08/24 10:34:40;;;;;;;3.60;1.45;;;21.90;64.80;;;;;;5048608;28;20055;-64
2021/08/24 10:37:26;;;;;;;5.53;1.50;;;21.70;60.30;;;;;;5046129;28;20033;-67
2021/08/24 10:39:54;;;;;;;4.50;1.50;;;21.60;65.20;;;;;;5046225;28;20033;-67
2021/08/24 10:42:23;;;;;;;4.03;1.30;;;21.60;68.20;;;;;;5047876;28;20521;-64
2021/08/24 10:44:59;;;;;;;4.93;1.45;;;21.50;68.70;;;;;;5043546;28;20055;-65
2021/08/24 10:47:49;;;;;;;4.95;1.45;;;21.50;68.70;;;;;;5035205;28;20071;-65
2021/08/24 10:50:25;;;;;;;4.43;1.45;;;21.60;69.00;;;;;;5027807;28;20037;-65
2021/08/24 10:53:02;;;;;;;9.60;1.85;;;21.60;68.80;;;;;;5032830;28;20084;-67
2021/08/24 10:55:32;;;;;;;23.85;3.03;;;21.70;68.30;;;;;;5041460;28;20037;-66
2021/08/24 10:58:35;;;;;;;5.70;1.83;;;21.70;67.30;;;;;;5036198;28;20184;-66
2021/08/24 11:01:13;;;;;;;3.92;1.30;;;21.70;68.40;;;;;;5038390;28;20060;-66
2021/08/24 11:03:38;;;;;;;4.97;1.38;;;21.80;67.70;;;;;;5029775;28;20095;-68
2021/08/24 11:06:23;;;;;;;3.03;1.40;;;21.80;64.20;;;;;;5030120;28;20434;-65
2021/08/24 11:09:13;;;;;;;8.55;1.60;;;21.90;62.10;;;;;;5036100;28;20443;-68
2021/08/24 11:12:19;;;;;;;8.05;1.50;;;21.90;66.70;;;;;;5032510;28;20091;-65
2021/08/24 11:15:30;;;;;;;5.40;1.60;;;21.90;67.20;;;;;;5047980;28;20025;-68
2021/08/24 11:18:05;;;;;;;3.70;1.08;;;21.70;66.00;;;;;;5046287;28;20108;-66
2021/08/24 11:20:37;;;;;;;6.22;1.50;;;21.80;62.90;;;;;;5043350;28;20446;-66
2021/08/24 11:23:42;;;;;;;4.15;1.30;;;22.00;65.70;;;;;;5033062;28;20017;-65
2021/08/24 11:26:35;;;;;;;5.35;1.58;;;22.00;55.70;;;;;;5033413;28;20029;-66
2021/08/24 11:29:17;;;;;;;5.45;1.40;;;22.00;64.20;;;;;;5034639;28;20022;-67
2021/08/24 11:31:58;;;;;;;7.00;1.73;;;21.80;65.10;;;;;;5036025;28;20028;-66
2021/08/24 11:34:31;;;;;;;3.15;1.23;;;21.80;65.90;;;;;;5045757;28;20025;-67
2021/08/24 11:37:04;;;;;;;2.58;1.20;;;21.70;58.30;;;;;;5026282;28;20049;-64
2021/08/24 11:39:52;;;;;;;2.47;1.00;;;22.00;61.90;;;;;;5026004;28;20030;-64
2021/08/24 11:42:35;;;;;;;4.20;1.30;;;21.70;57.10;;;;;;5025783;28;20368;-68
2021/08/24 11:45:05;;;;;;;3.17;1.13;;;21.50;56.20;;;;;;5043829;28;20549;-66
2021/08/24 11:47:54;;;;;;;4.93;1.27;;;21.50;58.90;;;;;;5039922;28;20446;-68
2021/08/24 11:50:27;;;;;;;3.88;1.25;;;21.70;64.80;;;;;;5044276;28;20474;-66
2021/08/24 11:53:17;;;;;;;3.78;1.13;;;21.80;65.10;;;;;;5058014;28;20032;-67
2021/08/24 11:55:52;;;;;;;4.22;1.42;;;21.90;65.40;;;;;;5048570;28;20086;-66
2021/08/24 11:58:43;;;;;;;6.68;1.23;;;21.90;65.30;;;;;;5035794;28;20550;-65
2021/08/24 12:01:09;;;;;;;6.22;1.40;;;21.90;65.80;;;;;;5043430;28;20301;-67
2021/08/24 12:03:37;;;;;;;4.53;0.98;;;22.10;64.20;;;;;;5046582;28;20554;-68
2021/08/24 12:06:02;;;;;;;3.72;0.93;;;22.10;64.40;;;;;;5046474;28;20021;-62
2021/08/24 12:08:31;;;;;;;5.32;1.40;;;22.20;61.90;;;;;;5044014;28;20036;-66
2021/08/24 12:11:20;;;;;;;3.92;1.27;;;22.20;61.40;;;;;;5049324;28;20087;-69
2021/08/24 12:13:55;;;;;;;5.00;1.48;;;22.00;63.00;;;;;;5030309;28;20029;-67
2021/08/24 12:16:21;;;;;;;5.10;1.48;;;22.10;57.90;;;;;;5025142;28;20060;-68
2021/08/24 12:18:57;;;;;;;5.20;1.48;;;22.00;62.30;;;;;;5025457;28;20520;-66
2021/08/24 12:21:44;;;;;;;5.93;1.52;;;21.80;61.60;;;;;;5024958;28;20177;-67
2021/08/24 12:24:28;;;;;;;4.22;1.23;;;21.80;65.60;;;;;;5025028;28;20026;-66
2021/08/24 12:26:57;;;;;;;2.80;1.23;;;21.70;65.30;;;;;;5026632;28;20109;-67
2021/08/24 12:29:35;;;;;;;5.07;1.50;;;21.70;55.90;;;;;;5024888;28;20025;-66
2021/08/24 12:32:30;;;;;;;4.47;1.20;;;21.50;53.20;;;;;;5026169;28;20038;-66
2021/08/24 12:35:28;;;;;;;3.08;1.17;;;21.30;52.20;;;;;;5025834;28;20100;-67
2021/08/24 12:37:56;;;;;;;2.85;1.10;;;21.40;54.00;;;;;;5026363;28;20507;-65
2021/08/24 12:40:37;;;;;;;4.43;1.40;;;21.40;54.00;;;;;;5026067;28;20104;-65
2021/08/24 12:43:35;;;;;;;4.60;1.13;;;21.60;60.60;;;;;;5024580;28;20032;-65
2021/08/24 12:46:19;;;;;;;3.90;1.30;;;21.70;63.50;;;;;;5024599;28;20062;-69
2021/08/24 12:49:10;;;;;;;15.98;1.75;;;21.70;63.30;;;;;;5026087;28;20022;-68
2021/08/24 12:51:47;;;;;;;8.13;1.58;;;21.60;64.30;;;;;;5025768;28;20499;-66
2021/08/24 12:54:17;;;;;;;4.43;1.15;;;21.60;65.30;;;;;;5024549;28;20038;-66
2021/08/24 12:56:46;;;;;;;11.30;1.50;;;21.60;65.50;;;;;;5025915;28;20410;-66
2021/08/24 12:59:31;;;;;;;5.70;1.60;;;21.60;65.10;;;;;;5025769;28;20022;-66
2021/08/24 13:02:08;;;;;;;7.47;1.40;;;21.70;63.40;;;;;;5024498;28;20461;-67
2021/08/24 13:04:35;;;;;;;6.70;1.40;;;21.70;65.10;;;;;;5025873;28;20552;-65
2021/08/24 13:07:19;;;;;;;3.55;1.20;;;21.70;65.60;;;;;;5025646;28;20037;-70
2021/08/24 13:09:50;;;;;;;3.42;1.00;;;21.60;63.70;;;;;;5024699;28;20032;-68
2021/08/24 13:12:32;;;;;;;6.35;1.38;;;21.50;65.00;;;;;;5025525;28;20041;-65